createdAt,value
2022-10-05T00:02:34.740Z,11.02
2022-10-05T00:05:36.716Z,11.05
2022-10-05T00:08:38.496Z,11.05
2022-10-05T00:11:40.140Z,11.05
2022-10-05T00:14:42.764Z,11.03
2022-10-05T00:17:46.037Z,11.03
2022-10-05T00:20:48.506Z,11.04
2022-10-05T00:23:51.006Z,11.04
2022-10-05T00:26:57.064Z,11.01
2022-10-05T00:30:02.786Z,11.00
2022-10-05T00:33:05.878Z,10.94
2022-10-05T00:36:07.955Z,10.93
2022-10-05T00:39:09.865Z,10.91
2022-10-05T00:42:26.224Z,10.88
2022-10-05T00:45:29.652Z,10.87
2022-10-05T00:48:39.189Z,10.88
2022-10-05T00:51:43.800Z,10.87
2022-10-05T00:54:49.781Z,10.90
2022-10-05T00:58:01.485Z,10.89
2022-10-05T01:01:09.698Z,10.86
2022-10-05T01:04:16.830Z,10.85
2022-10-05T01:07:24.882Z,10.83
2022-10-05T01:10:31.198Z,10.79
2022-10-05T01:13:37.432Z,10.76
2022-10-05T01:16:46.603Z,10.72
2022-10-05T01:20:05.363Z,10.70
2022-10-05T01:23:25.702Z,10.65
2022-10-05T01:26:43.588Z,10.63
2022-10-05T01:29:49.748Z,10.57
2022-10-05T01:32:57.301Z,10.59
2022-10-05T01:36:02.760Z,10.55
2022-10-05T01:39:10.773Z,10.57
2022-10-05T01:42:19.499Z,10.59
2022-10-05T01:45:27.347Z,10.60
2022-10-05T01:48:35.631Z,10.60
2022-10-05T01:51:42.346Z,10.56
2022-10-05T01:54:52.480Z,10.54
2022-10-05T01:58:02.021Z,10.48
2022-10-05T02:01:06.788Z,10.44
2022-10-05T02:04:15.168Z,10.42
2022-10-05T02:07:29.697Z,10.40
2022-10-05T02:10:33.570Z,10.40
2022-10-05T02:13:38.007Z,10.44
2022-10-05T02:16:42.361Z,10.42
2022-10-05T02:19:46.231Z,10.40
2022-10-05T02:22:51.153Z,10.42
2022-10-05T02:25:55.264Z,10.43
2022-10-05T02:28:58.041Z,10.43
2022-10-05T02:32:03.597Z,10.44
2022-10-05T02:35:12.425Z,10.46
2022-10-05T02:38:16.160Z,10.47
2022-10-05T02:41:24.959Z,10.44
2022-10-05T02:44:33.510Z,10.39
2022-10-05T02:47:40.083Z,10.32
2022-10-05T02:50:47.676Z,10.33
2022-10-05T02:53:54.053Z,10.32
2022-10-05T02:56:58.544Z,10.30
2022-10-05T03:00:06.037Z,10.29
2022-10-05T03:03:11.749Z,10.29
2022-10-05T03:06:17.549Z,10.29
2022-10-05T03:09:20.828Z,10.30
2022-10-05T03:12:30.369Z,10.33
2022-10-05T03:15:56.297Z,10.30
2022-10-05T03:19:04.044Z,10.35
2022-10-05T03:22:12.356Z,10.37
2022-10-05T03:25:33.346Z,10.39
2022-10-05T03:28:40.296Z,10.40
2022-10-05T03:31:45.593Z,10.40
2022-10-05T03:34:54.089Z,10.46
2022-10-05T03:38:04.554Z,10.50
2022-10-05T03:41:13.224Z,10.47
2022-10-05T03:44:24.286Z,10.48
2022-10-05T03:47:29.218Z,10.47
2022-10-05T03:50:40.717Z,10.45
2022-10-05T03:53:44.198Z,10.44
2022-10-05T03:56:54.068Z,10.41
2022-10-05T03:59:59.933Z,10.40
2022-10-05T04:03:05.068Z,10.38
2022-10-05T04:06:11.399Z,10.39
2022-10-05T04:09:15.153Z,10.40
2022-10-05T04:12:22.929Z,10.38
2022-10-05T04:15:28.742Z,10.35
2022-10-05T04:18:32.484Z,10.34
2022-10-05T04:21:38.745Z,10.32
2022-10-05T04:24:42.058Z,10.29
2022-10-05T04:27:45.877Z,10.27
2022-10-05T04:30:49.571Z,10.23
2022-10-05T04:34:00.242Z,10.22
2022-10-05T04:37:07.227Z,10.20
2022-10-05T04:40:15.860Z,10.18
2022-10-05T04:43:20.169Z,10.14
2022-10-05T04:46:29.467Z,10.10
2022-10-05T04:49:35.296Z,10.07
2022-10-05T04:52:43.405Z,10.05
2022-10-05T04:55:51.053Z,10.01
2022-10-05T04:59:00.391Z,10.00
2022-10-05T05:02:06.951Z,10.03
2022-10-05T05:05:23.608Z,10.03
2022-10-05T05:08:35.994Z,10.01
2022-10-05T05:11:46.075Z,9.99
2022-10-05T05:14:56.034Z,9.92
2022-10-05T05:18:15.622Z,9.92
2022-10-05T05:21:23.529Z,9.86
2022-10-05T05:24:34.097Z,9.82
2022-10-05T05:27:41.920Z,9.84
2022-10-05T05:30:46.367Z,9.87
2022-10-05T05:33:55.066Z,9.91
2022-10-05T05:37:04.482Z,9.88
2022-10-05T05:40:13.724Z,9.90
2022-10-05T05:43:23.265Z,9.92
2022-10-05T05:46:45.015Z,9.90
2022-10-05T05:49:55.971Z,9.85
2022-10-05T05:53:02.033Z,9.87
2022-10-05T05:56:08.518Z,9.86
2022-10-05T05:59:15.013Z,9.85
2022-10-05T06:02:19.260Z,9.87
2022-10-05T06:05:31.741Z,9.86
2022-10-05T06:08:35.993Z,9.86
2022-10-05T06:11:42.175Z,9.85
2022-10-05T06:14:46.288Z,9.82
2022-10-05T06:17:52.824Z,9.85
2022-10-05T06:20:57.736Z,9.90
2022-10-05T06:24:00.995Z,9.94
2022-10-05T06:27:15.857Z,9.98
2022-10-05T06:30:18.073Z,10.03
2022-10-05T06:33:30.585Z,10.05
2022-10-05T06:36:38.921Z,10.10
2022-10-05T06:40:06.138Z,10.14
2022-10-05T06:43:18.441Z,10.20
2022-10-05T06:46:22.978Z,10.25
2022-10-05T06:49:27.968Z,10.28
2022-10-05T06:52:33.870Z,10.33
2022-10-05T06:55:42.861Z,10.40
2022-10-05T06:58:50.479Z,10.45
2022-10-05T07:01:57.421Z,10.49
2022-10-05T07:05:17.073Z,10.55
2022-10-05T07:08:24.211Z,10.62
2022-10-05T07:11:56.416Z,10.69
2022-10-05T07:15:10.573Z,10.74
2022-10-05T07:18:26.378Z,10.77
2022-10-05T07:21:35.643Z,10.79
2022-10-05T07:24:40.897Z,10.80
2022-10-05T07:27:50.907Z,10.81
2022-10-05T07:31:00.929Z,10.78
2022-10-05T07:34:06.870Z,10.77
2022-10-05T07:37:29.113Z,10.76
2022-10-05T07:40:33.503Z,10.79
2022-10-05T07:44:01.022Z,10.79
2022-10-05T07:47:07.899Z,10.82
2022-10-05T07:50:15.410Z,10.85
2022-10-05T07:53:22.689Z,10.90
2022-10-05T07:56:37.027Z,10.96
2022-10-05T07:59:44.128Z,11.02
2022-10-05T08:02:49.459Z,11.03
2022-10-05T08:05:51.193Z,11.06
2022-10-05T08:08:57.128Z,11.09
2022-10-05T08:12:04.691Z,11.11
2022-10-05T08:15:12.629Z,11.15
2022-10-05T08:18:36.791Z,11.18
2022-10-05T08:21:42.049Z,11.21
2022-10-05T08:24:45.905Z,11.25
2022-10-05T08:27:55.709Z,11.30
2022-10-05T08:31:01.800Z,11.37
2022-10-05T08:34:20.109Z,11.39
2022-10-05T08:37:23.827Z,11.39
2022-10-05T08:40:41.694Z,11.42
2022-10-05T08:43:56.257Z,11.47
2022-10-05T08:47:10.373Z,11.49
2022-10-05T08:50:20.646Z,11.52
2022-10-05T08:53:45.876Z,11.55
2022-10-05T08:57:03.915Z,11.57
2022-10-05T09:00:11.535Z,11.52
2022-10-05T09:03:34.464Z,11.55
2022-10-05T09:06:52.036Z,11.63
2022-10-05T09:10:12.019Z,11.70
2022-10-05T09:13:26.417Z,11.77
2022-10-05T09:16:46.914Z,11.85
2022-10-05T09:20:03.840Z,11.90
2022-10-05T09:23:12.674Z,11.94
2022-10-05T09:26:41.677Z,11.99
2022-10-05T09:30:02.804Z,12.04
2022-10-05T09:33:27.110Z,12.12
2022-10-05T09:36:46.940Z,12.19
2022-10-05T09:40:10.164Z,12.32
2022-10-05T09:43:35.849Z,12.41
2022-10-05T09:46:46.434Z,12.52
2022-10-05T09:50:12.349Z,12.59
2022-10-05T09:53:44.542Z,12.69
2022-10-05T09:56:55.634Z,12.78
2022-10-05T10:00:12.631Z,12.87
2022-10-05T10:03:25.452Z,12.94
2022-10-05T10:06:37.778Z,12.98
2022-10-05T10:09:49.333Z,13.01
2022-10-05T10:12:57.183Z,13.04
2022-10-05T10:16:12.907Z,13.09
2022-10-05T10:19:31.844Z,13.09
2022-10-05T10:22:50.536Z,13.10
2022-10-05T10:26:13.527Z,13.11
2022-10-05T10:29:33.901Z,13.14
2022-10-05T10:32:55.143Z,13.15
2022-10-05T10:36:06.100Z,13.14
2022-10-05T10:39:12.376Z,13.16
2022-10-05T10:42:34.440Z,13.18
2022-10-05T10:45:41.589Z,13.26
2022-10-05T10:49:02.946Z,13.29
2022-10-05T10:52:33.185Z,13.34
2022-10-05T10:55:47.242Z,13.45
2022-10-05T10:59:03.360Z,13.54
2022-10-05T11:02:15.968Z,13.63
2022-10-05T11:05:33.163Z,13.76
2022-10-05T11:08:55.934Z,13.79
2022-10-05T11:12:11.573Z,13.88
2022-10-05T11:15:50.249Z,14.02
2022-10-05T11:19:02.680Z,14.11
2022-10-05T11:22:14.445Z,14.35
2022-10-05T11:25:34.240Z,14.46
2022-10-05T11:28:58.928Z,14.70
2022-10-05T11:32:31.834Z,14.79
2022-10-05T11:35:50.592Z,14.98
2022-10-05T11:39:15.631Z,15.04
2022-10-05T11:42:45.261Z,14.97
2022-10-05T11:45:58.137Z,14.90
2022-10-05T11:49:14.020Z,14.87
2022-10-05T11:52:21.087Z,14.94
2022-10-05T11:55:25.065Z,14.89
2022-10-05T11:58:29.791Z,14.83
2022-10-05T12:01:38.010Z,14.87
2022-10-05T12:04:53.111Z,14.96
2022-10-05T12:08:03.750Z,14.90
2022-10-05T12:11:09.204Z,14.93
2022-10-05T12:14:16.377Z,14.71
2022-10-05T12:17:25.680Z,14.85
2022-10-05T12:20:30.561Z,14.94
2022-10-05T12:23:35.795Z,15.02
2022-10-05T12:26:41.136Z,15.15
2022-10-05T12:29:48.941Z,15.22
2022-10-05T12:33:03.044Z,15.28
2022-10-05T12:36:09.405Z,15.34
2022-10-05T12:39:16.143Z,15.41
2022-10-05T12:42:26.130Z,15.45
2022-10-05T12:45:31.039Z,15.35
2022-10-05T12:48:47.419Z,15.40
2022-10-05T12:51:55.031Z,15.40
2022-10-05T12:55:02.217Z,15.54
2022-10-05T12:58:16.284Z,15.59
2022-10-05T13:01:31.779Z,15.71
2022-10-05T13:04:39.607Z,15.71
2022-10-05T13:07:50.947Z,15.75
2022-10-05T13:10:59.928Z,15.76
2022-10-05T13:14:17.513Z,15.91
2022-10-05T13:17:25.942Z,15.80
2022-10-05T13:20:46.051Z,15.84
2022-10-05T13:23:57.405Z,16.07
2022-10-05T13:27:04.811Z,16.04
2022-10-05T13:30:13.930Z,16.16
2022-10-05T13:33:19.818Z,16.15
2022-10-05T13:36:31.703Z,16.27
2022-10-05T13:39:41.890Z,16.37
2022-10-05T13:42:48.272Z,16.41
2022-10-05T13:45:55.837Z,16.42
2022-10-05T13:49:08.745Z,16.53
2022-10-05T13:52:44.962Z,16.59
2022-10-05T13:55:49.991Z,16.57
2022-10-05T13:59:02.208Z,16.60
2022-10-05T14:02:07.083Z,16.65
2022-10-05T14:05:27.984Z,16.71
2022-10-05T14:08:32.659Z,16.80
2022-10-05T14:11:41.757Z,16.85
2022-10-05T14:14:45.376Z,16.89
2022-10-05T14:17:47.310Z,16.89
2022-10-05T14:20:58.343Z,16.85
2022-10-05T14:24:43.214Z,16.82
2022-10-05T14:27:51.699Z,16.75
2022-10-05T14:30:59.411Z,16.72
2022-10-05T14:34:20.119Z,16.76
2022-10-05T14:37:23.109Z,16.77
2022-10-05T14:40:26.933Z,16.72
2022-10-05T14:43:30.746Z,16.69
2022-10-05T14:46:33.050Z,16.70
2022-10-05T14:49:38.001Z,16.70
2022-10-05T14:52:41.252Z,16.68
2022-10-05T14:55:51.808Z,16.70
2022-10-05T14:59:22.258Z,16.71
2022-10-05T15:02:35.547Z,16.71
2022-10-05T15:05:39.680Z,16.72
2022-10-05T15:08:48.887Z,16.72
2022-10-05T15:11:52.746Z,16.74
2022-10-05T15:15:01.045Z,16.79
2022-10-05T15:18:05.853Z,16.79
2022-10-05T15:21:21.616Z,16.77
2022-10-05T15:24:26.677Z,16.76
2022-10-05T15:27:31.664Z,16.77
2022-10-05T15:30:36.801Z,16.77
2022-10-05T15:33:41.728Z,16.74
2022-10-05T15:36:48.198Z,16.71
2022-10-05T15:39:53.464Z,16.68
2022-10-05T15:42:58.667Z,16.67
2022-10-05T15:46:05.301Z,16.66
2022-10-05T15:49:16.321Z,16.65
2022-10-05T15:52:23.967Z,16.58
2022-10-05T15:55:30.111Z,16.59
2022-10-05T15:58:51.399Z,16.56
2022-10-05T16:01:57.686Z,16.50
2022-10-05T16:05:04.907Z,16.48
2022-10-05T16:08:29.017Z,16.38
2022-10-05T16:11:45.540Z,16.35
2022-10-05T16:15:01.561Z,16.28
2022-10-05T16:18:18.681Z,16.23
2022-10-05T16:21:25.254Z,16.19
2022-10-05T16:24:41.320Z,16.17
2022-10-05T16:28:05.301Z,16.10
2022-10-05T16:31:13.153Z,16.10
2022-10-05T16:34:23.411Z,16.06
2022-10-05T16:37:32.128Z,16.04
2022-10-05T16:40:39.748Z,15.97
2022-10-05T16:43:49.647Z,15.93
2022-10-05T16:46:53.845Z,15.87
2022-10-05T16:50:04.194Z,15.81
2022-10-05T16:53:12.281Z,15.81
2022-10-05T16:56:17.159Z,15.78
2022-10-05T16:59:34.797Z,15.71
2022-10-05T17:02:50.260Z,15.69
2022-10-05T17:06:02.658Z,15.70
2022-10-05T17:09:28.590Z,15.68
2022-10-05T17:12:39.488Z,15.64
2022-10-05T17:15:50.728Z,15.62
2022-10-05T17:19:12.946Z,15.59
2022-10-05T17:22:22.980Z,15.51
2022-10-05T17:25:34.310Z,15.49
2022-10-05T17:28:40.181Z,15.44
2022-10-05T17:32:09.656Z,15.45
2022-10-05T17:35:18.196Z,15.34
2022-10-05T17:38:23.286Z,15.31
2022-10-05T17:41:43.181Z,15.33
2022-10-05T17:44:45.055Z,15.33
2022-10-05T17:47:56.260Z,15.40
2022-10-05T17:51:16.599Z,15.41
2022-10-05T17:54:39.485Z,15.56
2022-10-05T17:57:42.045Z,15.63
2022-10-05T18:01:03.182Z,15.63
2022-10-05T18:04:23.585Z,15.69
2022-10-05T18:07:25.514Z,15.61
2022-10-05T18:10:29.232Z,15.67
2022-10-05T18:13:35.031Z,15.64
2022-10-05T18:16:55.481Z,15.73
2022-10-05T18:20:27.185Z,15.74
2022-10-05T18:23:35.721Z,15.74
2022-10-05T18:26:44.850Z,15.69
2022-10-05T18:30:05.259Z,15.71
2022-10-05T18:33:19.493Z,15.74
2022-10-05T18:36:27.589Z,15.74
2022-10-05T18:39:39.044Z,15.83
2022-10-05T18:42:45.366Z,15.87
2022-10-05T18:45:55.699Z,15.87
2022-10-05T18:49:04.557Z,15.93
2022-10-05T18:52:13.555Z,15.90
2022-10-05T18:55:24.365Z,15.90
2022-10-05T18:58:33.809Z,15.94
2022-10-05T19:01:44.896Z,15.86
2022-10-05T19:04:56.891Z,15.97
2022-10-05T19:08:02.851Z,15.98
2022-10-05T19:11:06.316Z,16.00
2022-10-05T19:14:16.309Z,16.03
2022-10-05T19:17:23.594Z,15.94
2022-10-05T19:20:29.328Z,16.02
2022-10-05T19:23:41.805Z,16.06
2022-10-05T19:26:54.165Z,16.13
2022-10-05T19:30:03.526Z,16.12
2022-10-05T19:33:11.053Z,16.07
2022-10-05T19:36:28.711Z,16.06
2022-10-05T19:39:36.151Z,16.05
2022-10-05T19:42:51.307Z,16.14
2022-10-05T19:46:02.627Z,16.11
2022-10-05T19:49:09.046Z,16.09
2022-10-05T19:52:12.912Z,16.13
2022-10-05T19:55:19.164Z,16.14
2022-10-05T19:58:24.672Z,16.09
2022-10-05T20:01:36.784Z,16.09
2022-10-05T20:04:40.698Z,16.00
2022-10-05T20:07:49.685Z,15.97
2022-10-05T20:11:04.555Z,15.94
2022-10-05T20:14:19.370Z,15.88
2022-10-05T20:17:45.970Z,15.89
2022-10-05T20:20:49.444Z,15.90
2022-10-05T20:24:05.764Z,15.87
2022-10-05T20:27:27.469Z,15.86
2022-10-05T20:30:30.890Z,15.83
2022-10-05T20:33:37.533Z,15.82
2022-10-05T20:36:40.455Z,15.82
2022-10-05T20:39:42.023Z,15.80
2022-10-05T20:42:43.788Z,15.76
2022-10-05T20:45:45.764Z,15.74
2022-10-05T20:48:48.832Z,15.73
2022-10-05T20:51:50.400Z,15.71
2022-10-05T20:54:53.882Z,15.74
2022-10-05T20:57:57.507Z,15.73
2022-10-05T21:01:18.466Z,15.71
2022-10-05T21:04:25.395Z,15.69
2022-10-05T21:07:27.248Z,15.67
2022-10-05T21:10:28.927Z,15.67
2022-10-05T21:13:30.585Z,15.65
2022-10-05T21:16:33.208Z,15.62
2022-10-05T21:19:40.346Z,15.63
2022-10-05T21:22:42.425Z,15.68
2022-10-05T21:25:43.985Z,15.68
2022-10-05T21:28:45.806Z,15.63
2022-10-05T21:31:47.655Z,15.65
2022-10-05T21:34:50.715Z,15.64
2022-10-05T21:37:52.357Z,15.65
2022-10-05T21:40:54.131Z,15.64
2022-10-05T21:43:55.787Z,15.65
2022-10-05T21:46:57.724Z,15.66
2022-10-05T21:50:01.379Z,15.75
2022-10-05T21:53:04.571Z,15.68
2022-10-05T21:56:08.901Z,15.69
2022-10-05T21:59:12.074Z,15.70
2022-10-05T22:02:17.729Z,15.70
2022-10-05T22:05:21.400Z,15.70
2022-10-05T22:08:25.406Z,15.69
2022-10-05T22:11:29.061Z,15.65
2022-10-05T22:14:31.223Z,15.72
2022-10-05T22:17:32.899Z,15.77
2022-10-05T22:20:35.976Z,15.74
2022-10-05T22:23:37.896Z,15.69
2022-10-05T22:26:40.174Z,15.69
2022-10-05T22:29:41.728Z,15.71
2022-10-05T22:32:43.417Z,15.72
2022-10-05T22:35:46.731Z,15.78
2022-10-05T22:38:48.349Z,15.71
2022-10-05T22:41:50.544Z,15.76
2022-10-05T22:44:52.084Z,15.75
2022-10-05T22:47:56.592Z,15.79
2022-10-05T22:50:59.543Z,15.80
2022-10-05T22:54:01.080Z,15.80
2022-10-05T22:57:05.506Z,15.80
2022-10-05T23:00:08.099Z,15.77
2022-10-05T23:03:09.765Z,15.79
2022-10-05T23:06:13.990Z,15.84
2022-10-05T23:09:15.468Z,15.91
2022-10-05T23:12:17.156Z,15.88
2022-10-05T23:15:18.842Z,15.98
2022-10-05T23:18:20.449Z,15.97
2022-10-05T23:21:24.372Z,15.92
2022-10-05T23:24:25.989Z,15.99
2022-10-05T23:27:27.703Z,15.99
2022-10-05T23:30:29.594Z,15.85
2022-10-05T23:33:31.516Z,15.62
2022-10-05T23:36:34.553Z,15.36
2022-10-05T23:42:58.617Z,15.09
2022-10-05T23:46:00.680Z,15.05
2022-10-05T23:49:02.808Z,15.01
2022-10-05T23:52:06.144Z,14.97
2022-10-05T23:55:07.902Z,14.90
2022-10-05T23:58:09.865Z,14.74
